Tropical Cyclones
[Index]
Main Index Home Page Stock Weather Photos Extreme Storms Discussion Storm News and Storm Chasing Reports Tropical Cyclones / Hurricanes / Typhoons Weather Data and Links Wild Fires / Bushfires Weather Observation Techniques Weather Picture Catalogue Tornado Pictures and Reports Stock Video Footage and DVDs for sale
Season 2004-2005 Tropical Cyclone NANCY Track Map
Season 2004-2005 Summaries (Operational Data): [AU] [SIO] [SPAC] [SH]
<<- Previous TC | 2004-2005 Season | Next TC ->>

click for intensity scale information  Lat/long Grid: Show Hide

 Date Labels: Show Hide

Operational Tropical Cyclone Data : JTWC Advisories

Name: NANCY
Number: 0518

10 Feb 2005 21:00 UTC to 18 Feb 2005 12:00 UTC

    date/time    lat    long     hPa   cat  kts
2005-02-10 21   11.0   168.0W   1005         20          
2005-02-11 03   12.3   169.9W   1000         25          
2005-02-11 06   12.5   170.0W   1000         25          
2005-02-11 12   13.0   168.5W   1000         30          
2005-02-11 18   13.5   168.4W   1000         30          
2005-02-12 00   13.4   167.3W    997         30          
2005-02-12 06   13.4   167.6W    997         30          
2005-02-12 12   13.3   166.7W    997         30          
2005-02-12 18   12.8   165.8W    995    1    35          
2005-02-13 00   12.9   165.3W    993    1    35          
2005-02-13 06   13.1   164.6W    990    1    40          
2005-02-13 12   13.2   164.5W    987    1    45          
2005-02-13 18   13.4   164.1W    985    2    50          
2005-02-13 21   13.8   164.0W    975    2    60          
2005-02-14 00   14.0   164.0W    965    3    80          
2005-02-14 06   14.0   163.4W    950    4    95          
2005-02-14 12   14.4   162.1W    935    4   100          
2005-02-14 18   15.4   160.8W    940    5   110          
2005-02-15 00   16.7   159.8W    940    5   110          
2005-02-15 06   17.8   159.2W    945    4   100          
2005-02-15 12   19.4   158.8W    950    4    95          
2005-02-15 18   20.5   158.5W    950    3    85          
2005-02-16 00   21.4   159.4W    970    3    75          
2005-02-16 06   22.4   159.8W    975    2    60          
2005-02-16 12   23.1   160.8W    975    2    60          
2005-02-16 18   24.4   161.8W    985    2    50          
2005-02-17 00   24.6   162.7W    990    1    40          
2005-02-17 06   25.0   164.0W    994    1    35          
2005-02-17 12   25.0   165.0W    994    1    35          
2005-02-17 18   26.0   165.0W    994    1    35          
2005-02-18 00   26.0   165.0W    992    1    35          
2005-02-18 06   26.0   165.0W    992    1    35          
2005-02-18 12   26.0   167.0W    995    1    35          
Winds are 10-min average.

Tropical cyclone tracks developed by Michael Bath using operational warnings and advisories and Google Maps.


[Australian Severe Weather index] [Copyright Notice] [Email Contacts] [Search This Site] [Privacy Policy]
Document: tropical_cyclone_nancy.htm Updated: 28 May 2013